createdAt,value
2023-05-09T04:35:48.666Z,13.95
2023-05-09T04:41:39.013Z,16.20
2023-05-09T04:44:12.495Z,16.02
2023-05-09T04:47:14.003Z,17.15
2023-05-09T04:49:46.931Z,16.33
2023-05-09T06:22:29.131Z,15.35
2023-05-09T06:25:04.185Z,18.25
2023-05-09T06:28:24.527Z,18.47
2023-05-09T06:30:54.367Z,20.55
2023-05-09T06:33:22.255Z,15.73
2023-05-09T06:42:37.798Z,14.03
2023-05-09T06:45:08.950Z,14.50
2023-05-09T06:47:44.619Z,18.92
2023-05-09T07:01:12.939Z,18.73
2023-05-09T07:21:13.220Z,16.02
2023-05-09T07:23:48.626Z,15.25
2023-05-09T07:26:44.596Z,16.17
2023-05-09T07:34:48.049Z,14.45
2023-05-09T08:03:58.099Z,15.88
2023-05-09T08:04:24.693Z,14.90
2023-05-09T08:16:13.746Z,12.25
2023-05-09T08:18:44.335Z,12.50
2023-05-09T08:21:14.240Z,13.15
2023-05-09T08:23:50.002Z,11.75
2023-05-09T08:26:16.712Z,16.13
2023-05-09T08:29:18.214Z,10.65
2023-05-09T08:41:19.207Z,9.13
2023-05-09T08:47:28.730Z,12.00
2023-05-09T10:24:48.335Z,9.23
2023-05-09T10:31:29.759Z,15.93
2023-05-09T10:34:13.162Z,13.90
2023-05-09T10:37:14.203Z,8.32
2023-05-09T10:39:44.197Z,8.95
2023-05-09T10:42:14.247Z,10.03
2023-05-09T10:44:42.075Z,17.00
2023-05-09T10:47:15.813Z,13.57
2023-05-09T10:49:45.343Z,9.05
2023-05-09T10:52:14.787Z,10.57
2023-05-09T10:54:43.748Z,9.60
2023-05-09T10:57:41.309Z,9.70
2023-05-09T11:00:09.590Z,14.25
2023-05-09T11:02:42.347Z,8.88
2023-05-09T11:06:07.583Z,10.02
2023-05-09T11:09:13.844Z,12.43
2023-05-09T11:12:18.100Z,8.93
2023-05-09T11:15:20.468Z,9.38
2023-05-09T11:28:38.921Z,9.07
2023-05-09T11:31:38.503Z,10.52
2023-05-09T11:34:44.193Z,10.77
2023-05-09T11:40:22.967Z,10.00
2023-05-09T11:49:48.728Z,8.65
2023-05-09T11:55:53.821Z,7.53
2023-05-09T11:58:50.630Z,7.65
2023-05-09T12:07:13.302Z,7.32
2023-05-09T12:12:18.005Z,7.57
2023-05-09T12:14:44.910Z,7.43
2023-05-09T12:17:51.934Z,7.65
2023-05-09T12:20:25.629Z,7.72
2023-05-09T12:22:55.620Z,12.48
2023-05-09T12:25:22.824Z,11.05
2023-05-09T12:27:49.857Z,14.47
2023-05-09T12:30:27.259Z,7.20
2023-05-09T12:32:57.349Z,10.35
2023-05-09T12:38:31.379Z,10.20
2023-05-09T12:44:03.456Z,18.55
2023-05-09T12:46:35.097Z,7.85
2023-05-09T12:49:05.268Z,16.70
2023-05-09T12:51:51.523Z,9.38
2023-05-09T12:54:25.498Z,10.43
2023-05-09T12:57:01.611Z,8.98
2023-05-09T12:59:31.314Z,11.40
2023-05-09T13:02:00.213Z,12.82
2023-05-09T13:04:42.120Z,13.68
2023-05-09T13:07:17.538Z,6.87
2023-05-09T13:10:42.438Z,10.68
2023-05-09T13:13:16.206Z,7.32
2023-05-09T13:15:45.902Z,18.67
2023-05-09T13:21:35.962Z,7.77
2023-05-09T13:27:09.112Z,17.65
2023-05-09T13:29:41.274Z,8.77
2023-05-09T13:32:11.017Z,8.93
2023-05-09T13:34:46.289Z,8.43
2023-05-09T13:40:19.012Z,6.40
2023-05-09T13:42:50.769Z,5.30
2023-05-09T13:48:44.765Z,6.67
2023-05-09T13:51:18.932Z,12.93
2023-05-09T13:53:48.974Z,8.75
2023-05-09T13:56:21.673Z,8.35
2023-05-09T13:58:48.417Z,6.75
2023-05-09T14:01:27.497Z,6.53
2023-05-09T14:03:58.557Z,9.68
2023-05-09T14:26:53.807Z,7.50
2023-05-09T14:29:22.860Z,15.75
2023-05-09T14:31:52.445Z,9.80
2023-05-09T14:34:22.262Z,5.60
2023-05-09T14:41:00.002Z,5.93
2023-05-09T14:43:26.794Z,5.63
2023-05-09T14:46:02.464Z,7.37
2023-05-09T17:23:07.397Z,7.27
2023-05-09T17:26:11.527Z,4.20
2023-05-09T17:57:11.330Z,5.45
2023-05-09T18:15:59.933Z,6.65
2023-05-09T18:21:18.289Z,6.95
2023-05-09T18:54:30.058Z,4.37
2023-05-09T18:57:03.955Z,5.13
2023-05-09T18:59:41.547Z,3.30
2023-05-09T19:02:08.337Z,3.60
2023-05-09T19:04:59.610Z,4.68
2023-05-09T19:07:35.321Z,3.30
2023-05-09T19:10:14.348Z,5.35
2023-05-09T19:12:49.730Z,2.92
2023-05-09T19:15:31.929Z,3.90
2023-05-09T19:18:16.658Z,4.32
2023-05-09T19:20:52.528Z,3.33
2023-05-09T19:27:08.228Z,2.92
2023-05-09T19:38:30.006Z,3.27
2023-05-09T19:44:22.404Z,3.50
2023-05-09T19:46:49.640Z,5.80
2023-05-09T19:49:43.519Z,4.63
2023-05-09T21:29:04.779Z,16.17
2023-05-09T22:10:30.698Z,18.15
2023-05-09T22:13:11.204Z,21.30
2023-05-09T22:15:38.146Z,20.88
2023-05-09T22:18:08.226Z,18.77
2023-05-09T22:20:35.041Z,31.77
2023-05-09T22:23:01.657Z,22.67
2023-05-09T22:25:50.772Z,20.90
2023-05-09T22:31:24.592Z,24.77
2023-05-09T22:33:53.302Z,21.45
2023-05-09T22:36:31.866Z,21.80
2023-05-09T22:39:07.940Z,21.63
2023-05-09T22:41:41.061Z,23.08
2023-05-09T22:44:14.224Z,25.27
2023-05-09T22:46:47.382Z,23.73
2023-05-09T22:49:19.434Z,22.60
2023-05-09T22:51:58.430Z,23.23
2023-05-09T22:54:25.309Z,24.52
2023-05-09T22:57:04.307Z,24.10
2023-05-09T22:59:37.794Z,25.17
2023-05-09T23:02:05.150Z,28.40
2023-05-09T23:04:34.357Z,24.80
2023-05-09T23:07:05.052Z,37.17
2023-05-09T23:09:37.198Z,31.00
2023-05-09T23:12:05.000Z,34.95
2023-05-09T23:14:31.846Z,30.45
2023-05-09T23:30:27.374Z,27.90
2023-05-09T23:32:59.785Z,25.15
2023-05-09T23:35:33.124Z,22.00
2023-05-09T23:38:10.962Z,28.23
2023-05-09T23:40:38.166Z,30.55
2023-05-09T23:43:38.836Z,25.55
2023-05-09T23:46:08.894Z,35.45
2023-05-09T23:48:35.907Z,27.80
2023-05-09T23:51:08.783Z,35.78
2023-05-09T23:53:38.292Z,32.25
2023-05-09T23:56:07.929Z,28.67
2023-05-09T23:58:40.515Z,28.17
